Time;durP1;ratioP1;P1;durP2;ratioP2;P2;SDS_P1;SDS_P2;PMS_P1;PMS_P2;Temp;Humidity;BMP_temperature;BMP_pressure;BME280_temperature;BME280_humidity;BME280_pressure;Samples;Min_cycle;Max_cycle;Signal;HPM_P1;HPM_P2
2022/01/29 00:00:44;;;;;;;;;;;;;;;-2.49;86.62;97875.28;5027834;28;19925;-76
2022/01/29 00:03:10;;;;;;;;;;;;;;;-2.51;86.10;97871.88;5011203;28;19913;-76
2022/01/29 00:05:35;;;;;;;;;;;;;;;-2.50;86.14;97876.13;5043786;28;19952;-77
2022/01/29 00:08:02;;;;;;;;;;;;;;;-2.49;86.25;97880.38;5043745;28;19922;-77
2022/01/29 00:10:28;;;;;;;;;;;;;;;-2.48;86.74;97875.31;5010919;28;19998;-76
2022/01/29 00:12:53;;;;;;;;;;;;;;;-2.44;87.08;97866.94;5044029;28;19968;-78
2022/01/29 00:15:20;;;;;;;;;;;;;;;-2.43;86.70;97872.84;5027103;28;20365;-78
2022/01/29 00:17:45;;;;;;;;;;;;;;;-2.43;87.08;97868.66;5044074;28;20289;-78
2022/01/29 00:20:11;;;;;;;;;;;;;;;-2.41;86.62;97861.06;5043638;28;19924;-77
2022/01/29 00:22:37;;;;;;;;;;;;;;;-2.42;86.42;97859.34;5027120;28;19968;-76
2022/01/29 00:25:02;;;;;;;;;;;;;;;-2.41;87.01;97851.75;5027007;28;19923;-76
2022/01/29 00:27:33;;;;;;;;;;;;;;;-2.46;86.35;97857.59;5010586;28;19967;-76
2022/01/29 00:30:02;;;;;;;;;;;;;;;-2.42;86.24;97864.44;5011761;28;19960;-77
2022/01/29 00:32:27;;;;;;;;;;;;;;;-2.40;86.62;97863.63;5042779;28;20442;-77
2022/01/29 00:34:53;;;;;;;;;;;;;;;-2.41;86.56;97863.59;5011709;28;19917;-78
2022/01/29 00:37:19;;;;;;;;;;;;;;;-2.43;86.76;97875.41;5026651;28;19913;-79
2022/01/29 00:39:44;;;;;;;;;;;;;;;-2.47;86.75;97878.72;5043482;28;19971;-76
2022/01/29 00:42:10;;;;;;;;;;;;;;;-2.49;86.54;97866.00;5010564;28;19914;-77
2022/01/29 00:44:36;;;;;;;;;;;;;;;-2.49;86.47;97878.69;5011752;28;19917;-77
2022/01/29 00:47:01;;;;;;;;;;;;;;;-2.47;86.33;97876.19;5043513;28;20296;-78
2022/01/29 00:49:27;;;;;;;;;;;;;;;-2.48;86.21;97875.31;5010229;28;19925;-77
2022/01/29 00:51:52;;;;;;;;;;;;;;;-2.46;86.27;97875.34;5026965;28;19913;-77
2022/01/29 00:54:18;;;;;;;;;;;;;;;-2.46;87.20;97878.75;5026545;28;19917;-77
2022/01/29 00:56:43;;;;;;;;;;;;;;;-2.44;86.91;97877.09;5011486;28;19967;-78
2022/01/29 00:59:08;;;;;;;;;;;;;;;-2.42;87.18;97869.50;5011386;28;19921;-76
2022/01/29 01:01:34;;;;;;;;;;;;;;;-2.43;86.87;97870.31;5011405;28;19959;-77
2022/01/29 01:04:00;;;;;;;;;;;;;;;-2.41;87.07;97866.13;5011416;28;19967;-78
2022/01/29 01:06:25;;;;;;;;;;;;;;;-2.40;86.77;97867.84;5011314;28;20387;-77
2022/01/29 01:08:51;;;;;;;;;;;;;;;-2.39;86.95;97864.47;5009538;28;19921;-77
2022/01/29 01:11:16;;;;;;;;;;;;;;;-2.37;86.96;97867.91;5037548;28;19975;-75
2022/01/29 01:13:42;;;;;;;;;;;;;;;-2.35;87.05;97871.31;5042807;28;20365;-78
2022/01/29 01:16:07;;;;;;;;;;;;;;;-2.34;86.47;97867.94;5026375;28;19917;-78
2022/01/29 01:18:33;;;;;;;;;;;;;;;-2.33;86.85;97864.59;5011349;28;19941;-78
2022/01/29 01:20:58;;;;;;;;;;;;;;;-2.34;87.08;97857.78;5010201;28;20024;-78
2022/01/29 01:23:24;;;;;;;;;;;;;;;-2.33;86.54;97855.28;5042903;28;19920;-78
2022/01/29 01:25:49;;;;;;;;;;;;;;;-2.31;86.60;97858.69;5042998;28;19914;-78
2022/01/29 01:28:15;;;;;;;;;;;;;;;-2.33;86.60;97859.53;5011182;28;20024;-77
2022/01/29 01:30:40;;;;;;;;;;;;;;;-2.33;87.10;97865.47;5014680;28;19913;-78
2022/01/29 01:33:06;;;;;;;;;;;;;;;-2.31;86.55;97862.94;5014738;28;19917;-77
2022/01/29 01:35:41;;;;;;;;;;;;;;;-2.29;87.10;97858.75;5029907;28;20003;-77
2022/01/29 01:40:40;;;;;;;;;;;;;;;-2.30;86.56;97862.94;5014582;28;19960;-78
2022/01/29 01:43:06;;;;;;;;;;;;;;;-2.28;86.97;97857.91;5046053;28;19913;-78
2022/01/29 01:45:31;;;;;;;;;;;;;;;-2.26;86.82;97861.31;5046311;28;19925;-77
2022/01/29 01:47:57;;;;;;;;;;;;;;;-2.25;87.15;97857.09;5046465;28;19921;-78
2022/01/29 01:50:23;;;;;;;;;;;;;;;-2.24;86.53;97854.59;5014964;28;20351;-77
2022/01/29 01:52:49;;;;;;;;;;;;;;;-2.23;86.57;97851.22;5029523;28;20401;-74
2022/01/29 01:55:14;;;;;;;;;;;;;;;-2.26;87.37;97851.16;5029365;28;19917;-77
2022/01/29 01:57:39;;;;;;;;;;;;;;;-2.31;86.72;97848.53;5046258;28;19917;-78
2022/01/29 02:00:05;;;;;;;;;;;;;;;-2.29;86.87;97851.13;5014393;28;20008;-78
2022/01/29 02:02:37;;;;;;;;;;;;;;;-2.26;87.60;97853.72;5014185;28;19924;-78
2022/01/29 02:05:03;;;;;;;;;;;;;;;-2.25;86.83;97857.09;5014047;28;20377;-77
2022/01/29 02:07:29;;;;;;;;;;;;;;;-2.26;86.96;97855.41;5013081;28;19956;-78
2022/01/29 02:09:55;;;;;;;;;;;;;;;-2.29;86.51;97858.75;5045990;28;20317;-75
2022/01/29 02:12:23;;;;;;;;;;;;;;;-2.30;86.62;97857.00;5013933;28;19920;-76
2022/01/29 02:14:49;;;;;;;;;;;;;;;-2.31;86.56;97861.25;5045882;28;20273;-75
2022/01/29 02:17:16;;;;;;;;;;;;;;;-2.30;86.66;97855.31;5013924;28;19996;-77
2022/01/29 02:19:41;;;;;;;;;;;;;;;-2.26;86.96;97860.47;5013862;28;19965;-77
2022/01/29 02:22:06;;;;;;;;;;;;;;;-2.25;86.79;97860.50;5014006;28;20011;-76
2022/01/29 02:24:32;;;;;;;;;;;;;;;-2.25;86.69;97857.94;5013804;28;19917;-76
2022/01/29 02:26:57;;;;;;;;;;;;;;;-2.27;86.33;97859.63;5013938;28;19913;-76
2022/01/29 02:29:23;;;;;;;;;;;;;;;-2.28;85.92;97867.22;5013786;28;19921;-76
2022/01/29 02:31:49;;;;;;;;;;;;;;;-2.30;86.75;97864.63;5045571;28;19913;-76
2022/01/29 02:34:15;;;;;;;;;;;;;;;-2.35;86.61;97866.25;5045495;28;20011;-77
2022/01/29 02:36:42;;;;;;;;;;;;;;;-2.37;86.82;97867.91;5045639;28;19920;-77
2022/01/29 02:39:09;;;;;;;;;;;;;;;-2.38;86.43;97871.28;5013642;28;20016;-77
2022/01/29 02:41:34;;;;;;;;;;;;;;;-2.42;86.60;97860.22;5044165;28;19948;-77
2022/01/29 02:44:04;;;;;;;;;;;;;;;-2.41;87.12;97868.69;5045399;28;19960;-77
2022/01/29 02:46:42;;;;;;;;;;;;;;;-2.42;86.79;97872.91;5028179;28;19981;-77
2022/01/29 02:49:08;;;;;;;;;;;;;;;-2.41;87.10;97876.28;5012259;28;19943;-77
2022/01/29 02:51:33;;;;;;;;;;;;;;;-2.37;87.65;97873.00;5045375;28;19913;-77
2022/01/29 02:53:59;;;;;;;;;;;;;;;-2.34;87.23;97876.44;5013307;28;19967;-77
2022/01/29 02:56:24;;;;;;;;;;;;;;;-2.32;87.85;97876.47;5013172;28;20005;-77
2022/01/29 02:58:51;;;;;;;;;;;;;;;-2.32;87.18;97879.00;5045054;28;19939;-77
2022/01/29 03:01:17;;;;;;;;;;;;;;;-2.28;87.65;97885.84;5013407;28;19917;-77
2022/01/29 03:03:43;;;;;;;;;;;;;;;-2.25;87.58;97875.72;5045058;28;19928;-77
2022/01/29 03:06:10;;;;;;;;;;;;;;;-2.21;86.77;97886.81;5044590;28;19925;-76
2022/01/29 03:08:36;;;;;;;;;;;;;;;-2.22;86.92;97885.94;5011827;28;19921;-76
2022/01/29 03:11:01;;;;;;;;;;;;;;;-2.23;86.89;97883.41;5012985;28;19920;-76
2022/01/29 03:13:26;;;;;;;;;;;;;;;-2.23;86.58;97896.94;5044805;28;20293;-76
2022/01/29 03:15:52;;;;;;;;;;;;;;;-2.22;87.61;97888.50;5044628;28;19914;-76
2022/01/29 03:18:17;;;;;;;;;;;;;;;-2.22;87.44;97888.50;5027891;28;20396;-76
2022/01/29 03:20:43;;;;;;;;;;;;;;;-2.22;87.18;97887.63;5012828;28;19918;-76
2022/01/29 03:23:08;;;;;;;;;;;;;;;-2.19;86.55;97895.31;5045114;28;19924;-76
2022/01/29 03:25:34;;;;;;;;;;;;;;;-2.19;87.33;97888.56;5011788;28;20288;-76
2022/01/29 03:27:59;;;;;;;;;;;;;;;-2.18;86.88;97892.81;5012484;28;19929;-75
2022/01/29 03:30:25;;;;;;;;;;;;;;;-2.17;87.13;97894.50;5012869;28;19913;-76
2022/01/29 03:32:50;;;;;;;;;;;;;;;-2.17;87.23;97891.97;5044879;28;19924;-76
2022/01/29 03:35:16;;;;;;;;;;;;;;;-2.15;86.84;97900.50;5044558;28;19917;-76
2022/01/29 03:37:41;;;;;;;;;;;;;;;-2.14;87.12;97898.81;5044204;28;20012;-77
2022/01/29 03:40:08;;;;;;;;;;;;;;;-2.14;87.56;97899.66;5027793;28;19917;-76
2022/01/29 03:42:39;;;;;;;;;;;;;;;-2.12;87.69;97904.75;5060765;28;20355;-76
2022/01/29 03:45:07;;;;;;;;;;;;;;;-2.13;87.10;97896.28;5012393;28;19917;-76
2022/01/29 03:47:33;;;;;;;;;;;;;;;-2.13;87.60;97901.34;5027143;28;19913;-76
2022/01/29 03:49:58;;;;;;;;;;;;;;;-2.16;86.75;97903.84;5027221;28;19917;-76
2022/01/29 03:52:24;;;;;;;;;;;;;;;-2.14;87.64;97902.19;5012100;28;20008;-76
2022/01/29 03:54:49;;;;;;;;;;;;;;;-2.14;87.76;97897.13;5012105;28;19917;-76
2022/01/29 03:57:15;;;;;;;;;;;;;;;-2.14;88.06;97909.81;5012046;28;19945;-76
2022/01/29 03:59:40;;;;;;;;;;;;;;;-2.14;87.94;97902.19;5012054;28;20377;-75
2022/01/29 04:02:06;;;;;;;;;;;;;;;-2.13;88.42;97903.91;5012090;28;19959;-78
2022/01/29 04:04:31;;;;;;;;;;;;;;;-2.13;87.71;97906.44;5012357;28;19999;-77
2022/01/29 04:07:04;;;;;;;;;;;;;;;-2.14;87.37;97917.44;5012098;28;19954;-77
2022/01/29 04:09:29;;;;;;;;;;;;;;;-2.15;87.42;97909.78;5026062;28;19921;-77
2022/01/29 04:11:55;;;;;;;;;;;;;;;-2.15;87.08;97917.41;5043799;28;19919;-78
2022/01/29 04:14:21;;;;;;;;;;;;;;;-2.15;87.40;97915.72;5043881;28;19917;-76
2022/01/29 04:16:46;;;;;;;;;;;;;;;-2.14;88.03;97916.59;5011897;28;19979;-78
2022/01/29 04:19:12;;;;;;;;;;;;;;;-2.15;87.36;97918.28;5011920;28;19917;-77
2022/01/29 04:21:37;;;;;;;;;;;;;;;-2.17;87.87;97907.22;5043661;28;19913;-76
2022/01/29 04:24:03;;;;;;;;;;;;;;;-2.18;87.10;97912.28;5043763;28;19957;-77
2022/01/29 04:26:34;;;;;;;;;;;;;;;-2.21;87.26;97912.22;5044122;28;20390;-78
2022/01/29 04:28:59;;;;;;;;;;;;;;;-2.25;86.69;97916.38;5010337;28;19928;-78
2022/01/29 04:31:25;;;;;;;;;;;;;;;-2.29;87.35;97914.63;5011623;28;19913;-76
2022/01/29 04:33:50;;;;;;;;;;;;;;;-2.35;86.54;97917.03;5043528;28;19917;-77
2022/01/29 04:36:16;;;;;;;;;;;;;;;-2.39;87.19;97911.03;5026974;28;19918;-77
2022/01/29 04:38:41;;;;;;;;;;;;;;;-2.40;86.83;97921.16;5043673;28;19921;-77
2022/01/29 04:41:07;;;;;;;;;;;;;;;-2.44;86.94;97920.25;5011553;28;19914;-75
2022/01/29 04:43:36;;;;;;;;;;;;;;;-2.43;86.92;97923.63;5011636;28;20273;-78
2022/01/29 04:46:01;;;;;;;;;;;;;;;-2.41;87.97;97927.09;5043552;28;19944;-77
2022/01/29 04:48:27;;;;;;;;;;;;;;;-2.40;87.80;97928.78;5043104;28;20015;-76
2022/01/29 04:50:52;;;;;;;;;;;;;;;-2.41;87.57;97927.94;5043300;28;19917;-77
2022/01/29 04:53:18;;;;;;;;;;;;;;;-2.43;87.68;97923.63;5010200;28;19917;-76
2022/01/29 04:55:43;;;;;;;;;;;;;;;-2.41;87.33;97933.00;5043107;28;20011;-77
2022/01/29 04:58:09;;;;;;;;;;;;;;;-2.39;88.29;97933.88;5043503;28;20363;-77
2022/01/29 05:00:35;;;;;;;;;;;;;;;-2.38;87.74;97940.69;5026727;28;19913;-76
2022/01/29 05:03:27;;;;;;;;;;;;;;;-2.39;86.85;97941.50;5010051;28;19944;-77
2022/01/29 05:05:53;;;;;;;;;;;;;;;-2.34;87.24;97944.13;5014014;28;20377;-76
2022/01/29 05:08:19;;;;;;;;;;;;;;;-2.34;87.34;97939.94;5030627;28;19922;-77
2022/01/29 05:10:44;;;;;;;;;;;;;;;-2.32;87.19;97945.88;5015551;28;19939;-78
2022/01/29 05:13:13;;;;;;;;;;;;;;;-2.30;87.53;97938.28;5015467;28;19913;-78
2022/01/29 05:15:43;;;;;;;;;;;;;;;-2.30;87.42;97943.38;5047032;28;19917;-75
2022/01/29 05:29:06;;;;;;;;;;;;;;;-2.24;87.87;97945.19;5042229;28;20297;-76
2022/01/29 05:31:32;;;;;;;;;;;;;;;-2.24;87.20;97946.03;5015235;28;19963;-78
2022/01/29 05:33:57;;;;;;;;;;;;;;;-2.22;86.99;97948.59;5014823;28;19917;-76
2022/01/29 05:36:23;;;;;;;;;;;;;;;-2.22;87.28;97949.44;5046984;28;19913;-76
2022/01/29 05:38:48;;;;;;;;;;;;;;;-2.18;87.13;97953.75;5046708;28;19968;-76
2022/01/29 05:41:14;;;;;;;;;;;;;;;-2.17;87.29;97958.00;5046760;28;19913;-78
2022/01/29 05:43:39;;;;;;;;;;;;;;;-2.13;87.03;97962.31;5013961;28;19917;-76
2022/01/29 05:46:05;;;;;;;;;;;;;;;-2.13;87.50;97967.41;5015038;28;19917;-77
2022/01/29 05:48:30;;;;;;;;;;;;;;;-2.14;86.99;97963.16;5030415;28;19921;-78
2022/01/29 05:50:56;;;;;;;;;;;;;;;-2.09;87.37;97971.72;5014809;28;19920;-78
2022/01/29 05:53:21;;;;;;;;;;;;;;;-2.07;86.88;97969.19;5029588;28;20439;-77
2022/01/29 05:55:47;;;;;;;;;;;;;;;-2.08;87.02;97968.34;5014312;28;19917;-78
2022/01/29 05:58:12;;;;;;;;;;;;;;;-2.06;87.07;97971.78;5014607;28;19924;-78
2022/01/29 06:00:38;;;;;;;;;;;;;;;-2.05;86.76;97967.56;5029874;28;19913;-77
2022/01/29 06:03:05;;;;;;;;;;;;;;;-2.01;87.29;97971.03;5013094;28;19917;-77
2022/01/29 06:05:30;;;;;;;;;;;;;;;-2.01;86.71;97978.66;5046163;28;19932;-77
2022/01/29 06:07:56;;;;;;;;;;;;;;;-2.02;86.08;97977.75;5046316;28;19921;-77
2022/01/29 06:10:22;;;;;;;;;;;;;;;-2.01;86.41;97983.72;5046447;28;19921;-77
2022/01/29 06:13:06;;;;;;;;;;;;;;;-2.04;86.40;97979.44;5014375;28;19917;-77
2022/01/29 06:15:32;;;;;;;;;;;;;;;-2.02;86.27;97985.38;5045891;28;19917;-78
2022/01/29 06:17:58;;;;;;;;;;;;;;;-1.99;86.60;97988.00;5029185;28;20291;-76
2022/01/29 06:20:24;;;;;;;;;;;;;;;-1.96;86.31;97994.81;5014255;28;20409;-75
2022/01/29 06:22:49;;;;;;;;;;;;;;;-1.97;86.46;97993.97;5046114;28;19917;-75
2022/01/29 06:25:15;;;;;;;;;;;;;;;-1.96;86.51;97990.59;5014167;28;19971;-76
2022/01/29 06:27:41;;;;;;;;;;;;;;;-1.93;87.14;98002.47;5014055;28;19924;-75
2022/01/29 06:30:06;;;;;;;;;;;;;;;-1.93;87.19;97998.25;5045922;28;19928;-75
2022/01/29 06:32:32;;;;;;;;;;;;;;;-1.90;86.82;98007.63;5046336;28;19956;-76
2022/01/29 06:34:57;;;;;;;;;;;;;;;-1.87;87.44;98002.63;5014102;28;19924;-77
2022/01/29 06:37:23;;;;;;;;;;;;;;;-1.86;87.01;98001.78;5045778;28;20035;-76
2022/01/29 06:39:48;;;;;;;;;;;;;;;-1.86;87.45;98001.78;5013577;28;19940;-76
2022/01/29 06:42:14;;;;;;;;;;;;;;;-1.85;87.20;97999.25;5014082;28;19936;-79
2022/01/29 06:44:39;;;;;;;;;;;;;;;-1.86;87.44;98000.09;5028976;28;19917;-76
2022/01/29 06:47:05;;;;;;;;;;;;;;;-1.87;86.68;98000.94;5045670;28;20372;-76
2022/01/29 06:49:31;;;;;;;;;;;;;;;-1.88;87.04;98017.00;5045233;28;19927;-77
2022/01/29 06:51:56;;;;;;;;;;;;;;;-1.89;87.13;98010.19;5013588;28;19948;-77
2022/01/29 06:54:22;;;;;;;;;;;;;;;-1.88;87.37;98011.03;5045463;28;19917;-76
2022/01/29 06:56:47;;;;;;;;;;;;;;;-1.89;86.85;98011.88;5045666;28;19913;-77
2022/01/29 06:59:13;;;;;;;;;;;;;;;-1.87;87.17;98015.31;5013567;28;20403;-77
2022/01/29 07:01:38;;;;;;;;;;;;;;;-1.87;86.88;98012.78;5045659;28;19913;-77
2022/01/29 07:04:04;;;;;;;;;;;;;;;-1.89;87.21;98015.28;5013722;28;20007;-76
2022/01/29 07:06:29;;;;;;;;;;;;;;;-1.92;87.11;98020.31;5045284;28;20380;-76
2022/01/29 07:08:55;;;;;;;;;;;;;;;-1.95;86.62;98016.84;5013283;28;20398;-77
2022/01/29 07:11:23;;;;;;;;;;;;;;;-1.96;87.25;98023.63;5045643;28;19959;-76
2022/01/29 07:13:49;;;;;;;;;;;;;;;-1.96;86.26;98022.78;5028512;28;19917;-75
2022/01/29 07:16:15;;;;;;;;;;;;;;;-1.95;86.61;98022.78;5013777;28;20309;-77
2022/01/29 07:18:40;;;;;;;;;;;;;;;-1.95;86.54;98022.78;5012330;28;20493;-76
2022/01/29 07:21:06;;;;;;;;;;;;;;;-1.90;86.50;98027.97;5044600;28;19917;-79
2022/01/29 07:23:31;;;;;;;;;;;;;;;-1.84;86.88;98025.53;5013044;28;19940;-76
2022/01/29 07:25:57;;;;;;;;;;;;;;;-1.73;86.85;98033.38;5045030;28;19918;-78
2022/01/29 07:28:22;;;;;;;;;;;;;;;-1.64;86.73;98029.31;5012653;28;19927;-78
2022/01/29 07:30:48;;;;;;;;;;;;;;;-1.60;86.11;98026.00;5013005;28;19913;-77
2022/01/29 07:33:13;;;;;;;;;;;;;;;-1.46;86.18;98025.38;5012961;28;19917;-76
2022/01/29 07:35:39;;;;;;;;;;;;;;;-1.35;86.10;98031.50;5013051;28;19917;-76
2022/01/29 07:38:04;;;;;;;;;;;;;;;-1.33;85.33;98024.72;5027365;28;19917;-77
2022/01/29 07:40:29;;;;;;;;;;;;;;;-1.27;85.47;98034.16;5012645;28;20012;-77
2022/01/29 07:42:55;;;;;;;;;;;;;;;-1.21;84.96;98032.56;5044893;28;19918;-78
2022/01/29 07:45:21;;;;;;;;;;;;;;;-1.15;84.95;98047.06;5044598;28;19950;-77
2022/01/29 07:47:46;;;;;;;;;;;;;;;-1.11;84.45;98046.28;5012492;28;19929;-78
2022/01/29 07:50:12;;;;;;;;;;;;;;;-1.09;84.46;98039.56;5028310;28;20008;-76
2022/01/29 07:52:37;;;;;;;;;;;;;;;-1.09;84.54;98040.41;5044956;28;19961;-78
2022/01/29 07:55:07;;;;;;;;;;;;;;;-1.09;84.59;98047.19;5012303;28;20362;-79
2022/01/29 07:57:33;;;;;;;;;;;;;;;-1.08;84.52;98048.91;5027514;28;19924;-77
2022/01/29 07:59:58;;;;;;;;;;;;;;;-1.10;84.63;98048.88;5060893;28;19913;-77
2022/01/29 08:02:23;;;;;;;;;;;;;;;-1.10;84.38;98048.88;5012381;28;19917;-78
2022/01/29 08:04:49;;;;;;;;;;;;;;;-1.07;84.34;98051.44;5043927;28;20380;-76
2022/01/29 08:07:15;;;;;;;;;;;;;;;-1.02;84.23;98054.94;5011174;28;19977;-78
2022/01/29 08:09:41;;;;;;;;;;;;;;;-0.98;83.98;98047.34;5012613;28;20019;-78
2022/01/29 08:12:07;;;;;;;;;;;;;;;-0.97;83.82;98055.00;5044746;28;20344;-78
2022/01/29 08:14:35;;;;;;;;;;;;;;;-0.89;83.92;98050.88;5012820;28;19967;-76
2022/01/29 08:17:01;;;;;;;;;;;;;;;-0.78;83.82;98048.50;5012714;28;19917;-78
2022/01/29 08:19:26;;;;;;;;;;;;;;;-0.60;83.81;98042.81;5012194;28;20013;-78
2022/01/29 08:21:51;;;;;;;;;;;;;;;-0.54;83.18;98046.31;5012571;28;19940;-78
2022/01/29 08:24:17;;;;;;;;;;;;;;;-0.49;82.87;98045.53;5061594;28;19963;-77
2022/01/29 08:26:42;;;;;;;;;;;;;;;-0.42;82.45;98050.72;5012732;28;20352;-77
2022/01/29 08:29:08;;;;;;;;;;;;;;;-0.42;82.01;98042.22;5012580;28;20440;-78
2022/01/29 08:31:33;;;;;;;;;;;;;;;-0.38;81.81;98046.50;5044160;28;19924;-76
2022/01/29 08:33:59;;;;;;;;;;;;;;;-0.37;82.03;98051.63;5012394;28;19913;-77
2022/01/29 08:36:24;;;;;;;;;;;;;;;-0.38;81.77;98044.81;5043838;28;19918;-77
2022/01/29 08:38:50;;;;;;;;;;;;;;;-0.31;81.80;98043.22;5061437;28;20392;-80
2022/01/29 08:41:15;;;;;;;;;;;;;;;-0.22;81.75;98048.44;5027205;28;19917;-76
2022/01/29 08:43:41;;;;;;;;;;;;;;;-0.21;81.06;98052.69;5026955;28;20304;-76
2022/01/29 08:46:06;;;;;;;;;;;;;;;-0.16;80.81;98056.16;5043767;28;19980;-77
2022/01/29 08:48:32;;;;;;;;;;;;;;;-0.04;81.47;98041.03;5012193;28;19917;-80
2022/01/29 08:50:58;;;;;;;;;;;;;;;0.11;80.70;98057.34;5027625;28;19917;-78
2022/01/29 08:53:23;;;;;;;;;;;;;;;0.09;79.77;98061.53;5012436;28;19940;-79
2022/01/29 08:55:49;;;;;;;;;;;;;;;0.21;80.20;98061.69;5043725;28;19944;-78
2022/01/29 08:58:14;;;;;;;;;;;;;;;0.17;78.65;98054.84;5012283;28;19960;-77
2022/01/29 09:00:40;;;;;;;;;;;;;;;0.20;79.32;98062.53;5043474;28;19921;-77
2022/01/29 09:03:06;;;;;;;;;;;;;;;0.28;78.56;98058.38;5011721;28;20438;-76
2022/01/29 09:05:32;;;;;;;;;;;;;;;0.38;78.62;98062.72;5026585;28;19925;-76
2022/01/29 09:07:57;;;;;;;;;;;;;;;0.24;77.35;98062.59;5026614;28;20372;-78
2022/01/29 09:10:23;;;;;;;;;;;;;;;0.37;78.00;98070.38;5011691;28;20012;-77
2022/01/29 09:12:48;;;;;;;;;;;;;;;0.55;78.29;98073.13;5043327;28;19920;-76
2022/01/29 09:15:14;;;;;;;;;;;;;;;0.67;77.58;98072.38;5043610;28;19967;-77
2022/01/29 09:17:40;;;;;;;;;;;;;;;0.68;77.06;98076.63;5010359;28;19914;-77
2022/01/29 09:20:10;;;;;;;;;;;;;;;0.87;77.40;98075.97;5042973;28;20017;-78
2022/01/29 09:22:35;;;;;;;;;;;;;;;0.88;75.64;98071.72;5043484;28;20296;-77
2022/01/29 09:25:01;;;;;;;;;;;;;;;0.70;75.62;98074.97;5042821;28;19939;-77
2022/01/29 09:27:26;;;;;;;;;;;;;;;0.52;76.47;98085.00;5043384;28;19924;-76
2022/01/29 09:29:52;;;;;;;;;;;;;;;0.15;77.25;98082.03;5042996;28;19922;-77
2022/01/29 09:32:17;;;;;;;;;;;;;;;-0.02;78.27;98092.00;5011489;28;20368;-77
2022/01/29 09:34:43;;;;;;;;;;;;;;;0.03;79.02;98092.06;5042995;28;19923;-77
2022/01/29 09:37:08;;;;;;;;;;;;;;;0.06;78.85;98098.06;5042996;28;20402;-79
2022/01/29 09:39:34;;;;;;;;;;;;;;;0.08;78.76;98096.38;5011153;28;19971;-77
2022/01/29 09:42:00;;;;;;;;;;;;;;;0.02;79.32;98106.50;5026617;28;19913;-76
2022/01/29 09:44:26;;;;;;;;;;;;;;;0.06;79.21;98103.16;5043152;28;19967;-79
2022/01/29 09:46:51;;;;;;;;;;;;;;;0.23;80.12;98105.94;5043012;28;19952;-77
2022/01/29 09:49:17;;;;;;;;;;;;;;;0.26;79.53;98111.03;5010925;28;20028;-77
2022/01/29 09:51:43;;;;;;;;;;;;;;;0.08;79.00;98105.72;5046485;28;20384;-77
2022/01/29 09:54:08;;;;;;;;;;;;;;;0.15;79.17;98107.53;5030007;28;19921;-77
2022/01/29 09:56:34;;;;;;;;;;;;;;;-0.05;79.37;98109.81;5014934;28;19913;-77
2022/01/29 09:58:59;;;;;;;;;;;;;;;0.09;79.86;98109.97;5046903;28;19918;-78
2022/01/29 10:01:25;;;;;;;;;;;;;;;0.28;79.56;98104.28;5015403;28;19920;-80
2022/01/29 10:04:03;;;;;;;;;;;;;;;0.11;78.95;98109.19;5015684;28;19925;-78
2022/01/29 10:06:29;;;;;;;;;;;;;;;-0.07;79.84;98116.59;5030380;28;20019;-77
2022/01/29 10:08:54;;;;;;;;;;;;;;;-0.14;79.90;98107.13;5030132;28;20366;-77
2022/01/29 10:11:21;;;;;;;;;;;;;;;-0.31;80.53;98114.56;5046084;28;19917;-76
2022/01/29 10:13:48;;;;;;;;;;;;;;;-0.52;80.90;98118.50;5045801;28;19932;-76
2022/01/29 10:16:20;;;;;;;;;;;;;;;-0.68;81.85;98118.25;5014313;28;20447;-76
2022/01/29 10:18:47;;;;;;;;;;;;;;;-0.81;82.52;98112.13;5014078;28;19917;-77
2022/01/29 10:21:23;;;;;;;;;;;;;;;-0.82;83.28;98123.13;5013328;28;19917;-77
2022/01/29 10:23:49;;;;;;;;;;;;;;;-0.73;83.61;98123.28;5045894;28;19921;-77
2022/01/29 10:26:27;;;;;;;;;;;;;;;-0.82;83.29;98134.19;5014395;28;19920;-80
2022/01/29 10:28:53;;;;;;;;;;;;;;;-0.72;83.63;98125.00;5046404;28;19921;-77
2022/01/29 10:31:18;;;;;;;;;;;;;;;-0.64;83.49;98128.53;5013660;28;20424;-76
2022/01/29 10:33:43;;;;;;;;;;;;;;;-0.45;83.41;98122.00;5013961;28;19964;-76
2022/01/29 10:36:09;;;;;;;;;;;;;;;-0.19;83.75;98117.25;5013852;28;19913;-77
2022/01/29 10:38:41;;;;;;;;;;;;;;;-0.14;81.15;98122.44;5013583;28;19924;-77
2022/01/29 10:41:13;;;;;;;;;;;;;;;-0.05;80.82;98123.41;5045631;28;19925;-75
2022/01/29 10:43:57;;;;;;;;;;;;;;;0.15;81.25;98117.72;5045717;28;19918;-78
2022/01/29 10:46:24;;;;;;;;;;;;;;;0.32;80.63;98116.25;5013650;28;20012;-76
2022/01/29 10:48:49;;;;;;;;;;;;;;;0.33;78.31;98123.03;5013714;28;20028;-77
2022/01/29 10:51:15;;;;;;;;;;;;;;;0.54;79.17;98114.75;5013642;28;20023;-77
2022/01/29 10:53:40;;;;;;;;;;;;;;;0.63;78.35;98116.56;5045844;28;19999;-77
2022/01/29 10:56:06;;;;;;;;;;;;;;;0.70;77.59;98121.75;5029419;28;20439;-78
2022/01/29 10:58:41;;;;;;;;;;;;;;;0.80;76.82;98120.16;5029061;28;20446;-79
2022/01/29 11:01:13;;;;;;;;;;;;;;;0.52;76.08;98118.16;5045100;28;19922;-76
2022/01/29 11:03:39;;;;;;;;;;;;;;;0.71;78.03;98120.91;5045492;28;20381;-77
2022/01/29 11:06:05;;;;;;;;;;;;;;;1.01;78.07;98115.25;5045805;28;19984;-77
2022/01/29 11:08:31;;;;;;;;;;;;;;;1.16;76.74;98103.44;5013600;28;20398;-76
2022/01/29 11:10:56;;;;;;;;;;;;;;;1.10;75.54;98108.50;5013664;28;20011;-76
2022/01/29 11:13:22;;;;;;;;;;;;;;;1.34;76.39;98107.84;5013111;28;20020;-77
2022/01/29 11:15:47;;;;;;;;;;;;;;;1.57;75.02;98115.69;5028425;28;19913;-77
2022/01/29 11:18:13;;;;;;;;;;;;;;;1.56;73.54;98112.28;5028328;28;19940;-76
2022/01/29 11:20:38;;;;;;;;;;;;;;;1.37;73.63;98116.38;5028510;28;20265;-76
2022/01/29 11:23:04;;;;;;;;;;;;;;;1.37;73.92;98115.53;5012766;28;20365;-76
2022/01/29 11:25:34;;;;;;;;;;;;;;;1.31;74.46;98116.34;5028341;28;19913;-76
2022/01/29 11:28:16;;;;;;;;;;;;;;;1.14;73.61;98116.19;5011636;28;19922;-75
2022/01/29 11:30:43;;;;;;;;;;;;;;;0.79;74.84;98118.44;5028504;28;19917;-76
2022/01/29 11:33:08;;;;;;;;;;;;;;;0.46;75.03;98118.94;5044718;28;19919;-76
2022/01/29 11:35:36;;;;;;;;;;;;;;;0.33;77.08;98112.00;5012825;28;19917;-76
2022/01/29 11:38:01;;;;;;;;;;;;;;;0.20;77.30;98116.09;5028067;28;20304;-77
2022/01/29 11:40:27;;;;;;;;;;;;;;;0.05;78.35;98119.31;5012635;28;19921;-75
2022/01/29 11:42:53;;;;;;;;;;;;;;;-0.02;78.76;98115.81;5012726;28;19913;-76
2022/01/29 11:45:40;;;;;;;;;;;;;;;-0.03;78.87;98124.28;5027758;28;20403;-75
2022/01/29 11:48:06;;;;;;;;;;;;;;;0.13;78.89;98121.94;5012664;28;19928;-76
2022/01/29 11:50:32;;;;;;;;;;;;;;;0.09;79.00;98125.28;5027481;28;19968;-76
2022/01/29 11:52:58;;;;;;;;;;;;;;;0.03;79.40;98128.59;5012393;28;19972;-76
2022/01/29 11:55:33;;;;;;;;;;;;;;;-0.09;79.22;98126.78;5044162;28;19969;-76
2022/01/29 11:58:17;;;;;;;;;;;;;;;-0.22;79.46;98131.69;5012597;28;20032;-76
2022/01/29 12:00:55;;;;;;;;;;;;;;;-0.31;79.99;98140.91;5026945;28;19925;-78
2022/01/29 12:03:34;;;;;;;;;;;;;;;-0.33;80.56;98129.81;5043986;28;20426;-77
2022/01/29 12:06:11;;;;;;;;;;;;;;;-0.30;80.45;98137.50;5012059;28;20435;-77
2022/01/29 12:08:57;;;;;;;;;;;;;;;-0.27;80.47;98139.25;5012004;28;19925;-76
2022/01/29 12:11:23;;;;;;;;;;;;;;;-0.24;80.54;98126.53;5011900;28;19957;-76
2022/01/29 12:14:08;;;;;;;;;;;;;;;-0.24;80.95;98134.19;5043239;28;20435;-76
2022/01/29 12:16:48;;;;;;;;;;;;;;;-0.17;81.13;98130.91;5044030;28;20029;-76
2022/01/29 12:19:33;;;;;;;;;;;;;;;-0.20;80.78;98130.84;5012002;28;19947;-77
2022/01/29 12:22:06;;;;;;;;;;;;;;;-0.24;80.50;98126.53;5011881;28;19963;-77
2022/01/29 12:24:32;;;;;;;;;;;;;;;-0.23;80.78;98133.34;5027272;28;19921;-76
2022/01/29 12:26:57;;;;;;;;;;;;;;;-0.14;81.30;98132.63;5027077;28;19967;-76
2022/01/29 12:29:23;;;;;;;;;;;;;;;-0.14;80.46;98145.38;5010740;28;19921;-78
2022/01/29 12:31:52;;;;;;;;;;;;;;;-0.13;80.38;98137.75;5027166;28;20000;-76
2022/01/29 12:34:20;;;;;;;;;;;;;;;-0.06;80.32;98139.53;5043844;28;19917;-77
2022/01/29 12:36:46;;;;;;;;;;;;;;;-0.02;80.33;98135.34;5043191;28;19920;-76
2022/01/29 12:39:20;;;;;;;;;;;;;;;0.08;80.49;98141.41;5011520;28;20384;-76
2022/01/29 12:41:46;;;;;;;;;;;;;;;0.11;80.32;98141.47;5010503;28;19917;-76
2022/01/29 12:44:18;;;;;;;;;;;;;;;0.13;80.27;98149.97;5043731;28;20474;-76
2022/01/29 12:46:45;;;;;;;;;;;;;;;0.09;80.25;98148.22;5043230;28;19924;-76
2022/01/29 12:49:11;;;;;;;;;;;;;;;0.03;79.42;98153.25;5011490;28;19917;-77
2022/01/29 12:51:48;;;;;;;;;;;;;;;0.05;79.93;98146.50;5011370;28;19969;-77
2022/01/29 12:54:14;;;;;;;;;;;;;;;-0.06;80.23;98154.84;5043625;28;19917;-77
2022/01/29 12:56:39;;;;;;;;;;;;;;;-0.08;80.75;98151.41;5011578;28;19913;-77
2022/01/29 12:59:06;;;;;;;;;;;;;;;0.03;80.88;98158.34;5011446;28;19917;-77